Map

Track Data

SID SEASON NUMBER BASIN SUBBASIN NAME ISO_TIME NATURE LAT LON WMO_WIND WMO_PRES WMO_AGENCY TRACK_TYPE DIST2LAND LANDFALL IFLAG USA_AGENCY USA_ATCF_ID USA_LAT USA_LON USA_RECORD USA_STATUS USA_WIND USA_PRES USA_SSHS USA_R34_NE USA_R34_SE USA_R34_SW USA_R34_NW USA_R50_NE USA_R50_SE USA_R50_SW USA_R50_NW USA_R64_NE USA_R64_SE USA_R64_SW USA_R64_NW USA_POCI USA_ROCI USA_RMW USA_EYE TOKYO_LAT TOKYO_LON TOKYO_GRADE TOKYO_WIND TOKYO_PRES TOKYO_R50_DIR TOKYO_R50_LONG TOKYO_R50_SHORT TOKYO_R30_DIR TOKYO_R30_LONG TOKYO_R30_SHORT TOKYO_LAND CMA_LAT CMA_LON CMA_CAT CMA_WIND CMA_PRES HKO_LAT HKO_LON HKO_CAT HKO_WIND HKO_PRES NEWDELHI_LAT NEWDELHI_LON NEWDELHI_GRADE NEWDELHI_WIND NEWDELHI_PRES NEWDELHI_CI NEWDELHI_DP NEWDELHI_POCI REUNION_LAT REUNION_LON REUNION_TYPE REUNION_WIND REUNION_PRES REUNION_TNUM REUNION_CI REUNION_RMW REUNION_R34_NE REUNION_R34_SE REUNION_R34_SW REUNION_R34_NW REUNION_R50_NE REUNION_R50_SE REUNION_R50_SW REUNION_R50_NW REUNION_R64_NE REUNION_R64_SE REUNION_R64_SW REUNION_R64_NW BOM_LAT BOM_LON BOM_TYPE BOM_WIND BOM_PRES BOM_TNUM BOM_CI BOM_RMW BOM_R34_NE BOM_R34_SE BOM_R34_SW BOM_R34_NW BOM_R50_NE BOM_R50_SE BOM_R50_SW BOM_R50_NW BOM_R64_NE BOM_R64_SE BOM_R64_SW BOM_R64_NW BOM_ROCI BOM_POCI BOM_EYE BOM_POS_METHOD BOM_PRES_METHOD NADI_LAT NADI_LON NADI_CAT NADI_WIND NADI_PRES WELLINGTON_LAT WELLINGTON_LON WELLINGTON_WIND WELLINGTON_PRES DS824_LAT DS824_LON DS824_STAGE DS824_WIND DS824_PRES TD9636_LAT TD9636_LON TD9636_STAGE TD9636_WIND TD9636_PRES TD9635_LAT TD9635_LON TD9635_WIND TD9635_PRES TD9635_ROCI NEUMANN_LAT NEUMANN_LON NEUMANN_CLASS NEUMANN_WIND NEUMANN_PRES MLC_LAT MLC_LON MLC_CLASS MLC_WIND MLC_PRES USA_GUST BOM_GUST BOM_GUST_PER REUNION_GUST REUNION_GUST_PER USA_SEAHGT USA_SEARAD_NE USA_SEARAD_SE USA_SEARAD_SW USA_SEARAD_NW STORM_SPEED STORM_DIR
1997196N10251 1997 52 EP MM FELICIA 1997-07-14 12:00:00 TS 9.70000 -109.000 30 1006 hurdat_epa main 1130 1123 O_____________ hurdat_epa EP081997 9.70000 -109.000 TD 30 1006 -1 13 304
1997196N10251 1997 52 EP MM FELICIA 1997-07-14 15:00:00 TS 10.0677 -109.557 main 1129 1126 P_____________ EP081997 10.0677 -109.557 TD 30 1006 -1 13 303
1997196N10251 1997 52 EP MM FELICIA 1997-07-14 18:00:00 TS 10.4000 -110.100 30 1006 hurdat_epa main 1134 1132 O_____________ hurdat_epa EP081997 10.4000 -110.100 TD 30 1006 -1 12 300
1997196N10251 1997 52 EP MM FELICIA 1997-07-14 21:00:00 TS 10.6724 -110.615 main 1137 1137 P_____________ EP081997 10.6724 -110.615 TD 30 1006 -1 11 297
1997196N10251 1997 52 EP MM FELICIA 1997-07-15 00:00:00 TS 10.9000 -111.100 30 1006 hurdat_epa main 1149 1146 O_____________ hurdat_epa EP081997 10.9000 -111.100 TD 30 1006 -1 11 294
1997196N10251 1997 52 EP MM FELICIA 1997-07-15 03:00:00 TS 11.1075 -111.588 main 1163 1161 P_____________ EP081997 11.1075 -111.588 TD 30 1005 -1 10 294
1997196N10251 1997 52 EP MM FELICIA 1997-07-15 06:00:00 TS 11.3000 -112.000 30 1005 hurdat_epa main 1173 1171 O_____________ hurdat_epa EP081997 11.3000 -112.000 TD 30 1005 -1 8 300
1997196N10251 1997 52 EP MM FELICIA 1997-07-15 09:00:00 TS 11.4999 -112.280 main 1178 1170 P_____________ EP081997 11.4999 -112.280 TD 30 1005 -1 6 309
1997196N10251 1997 52 EP MM FELICIA 1997-07-15 12:00:00 TS 11.7000 -112.500 30 1005 hurdat_epa main 1176 1176 O_____________ hurdat_epa EP081997 11.7000 -112.500 TD 30 1005 -1 6 312
1997196N10251 1997 52 EP MM FELICIA 1997-07-15 15:00:00 TS 11.9074 -112.735 main 1176 1175 P_____________ EP081997 11.9074 -112.735 TD 32 1004 -1 6 309
1997196N10251 1997 52 EP MM FELICIA 1997-07-15 18:00:00 TS 12.1000 -113.000 35 1004 hurdat_epa main 1183 1182 O_____________ hurdat_epa EP081997 12.1000 -113.000 TS 35 1004 0 7 302
1997196N10251 1997 52 EP MM FELICIA 1997-07-15 21:00:00 TS 12.2725 -113.327 main 1190 1190 P_____________ EP081997 12.2725 -113.327 TS 35 1003 0 7 294
1997196N10251 1997 52 EP MM FELICIA 1997-07-16 00:00:00 TS 12.4000 -113.700 35 1003 hurdat_epa main 1213 1213 O_____________ hurdat_epa EP081997 12.4000 -113.700 TS 35 1003 0 8 285
1997196N10251 1997 52 EP MM FELICIA 1997-07-16 03:00:00 TS 12.4725 -114.108 main 1237 1237 P_____________ EP081997 12.4725 -114.108 TS 37 1001 0 8 277
1997196N10251 1997 52 EP MM FELICIA 1997-07-16 06:00:00 TS 12.5000 -114.500 40 1000 hurdat_epa main 1257 1257 O_____________ hurdat_epa EP081997 12.5000 -114.500 TS 40 1000 0 7 272
1997196N10251 1997 52 EP MM FELICIA 1997-07-16 09:00:00 TS 12.5000 -114.830 main 1269 1269 P_____________ EP081997 12.5000 -114.830 TS 45 998 0 6 270
1997196N10251 1997 52 EP MM FELICIA 1997-07-16 12:00:00 TS 12.5000 -115.100 50 996 hurdat_epa main 1282 1282 O_____________ hurdat_epa EP081997 12.5000 -115.100 TS 50 996 0 5 273
1997196N10251 1997 52 EP MM FELICIA 1997-07-16 15:00:00 TS 12.5274 -115.308 main 1291 1286 P_____________ EP081997 12.5274 -115.308 TS 52 993 0 4 284
1997196N10251 1997 52 EP MM FELICIA 1997-07-16 18:00:00 TS 12.6000 -115.500 55 990 hurdat_epa main 1290 1285 O_____________ hurdat_epa EP081997 12.6000 -115.500 TS 55 990 0 4 296
1997196N10251 1997 52 EP MM FELICIA 1997-07-16 21:00:00 TS 12.7199 -115.713 main 1290 1280 P_____________ EP081997 12.7199 -115.713 TS 57 989 0 6 302
1997196N10251 1997 52 EP MM FELICIA 1997-07-17 00:00:00 TS 12.9000 -116.000 60 988 hurdat_epa main 1285 1281 O_____________ hurdat_epa EP081997 12.9000 -116.000 TS 60 988 0 8 301
1997196N10251 1997 52 EP MM FELICIA 1997-07-17 03:00:00 TS 13.1350 -116.412 main 1287 1280 P_____________ EP081997 13.1350 -116.412 TS 62 987 0 10 300
1997196N10251 1997 52 EP MM FELICIA 1997-07-17 06:00:00 TS 13.4000 -116.900 65 987 hurdat_epa main 1288 1284 O_____________ hurdat_epa EP081997 13.4000 -116.900 HU 65 987 1 11 299
1997196N10251 1997 52 EP MM FELICIA 1997-07-17 09:00:00 TS 13.6499 -117.385 main 1300 1291 P_____________ EP081997 13.6499 -117.385 HU 65 987 1 11 297
1997196N10251 1997 52 EP MM FELICIA 1997-07-17 12:00:00 TS 13.9000 -117.900 65 987 hurdat_epa main 1306 1304 O_____________ hurdat_epa EP081997 13.9000 -117.900 HU 65 987 1 11 296
1997196N10251 1997 52 EP MM FELICIA 1997-07-17 15:00:00 TS 14.1574 -118.443 main 1315 1315 P_____________ EP081997 14.1574 -118.443 HU 65 987 1 12 295
1997196N10251 1997 52 EP MM FELICIA 1997-07-17 18:00:00 TS 14.4000 -119.000 65 987 hurdat_epa main 1342 1341 O_____________ hurdat_epa EP081997 14.4000 -119.000 HU 65 987 1 12 293
1997196N10251 1997 52 EP MM FELICIA 1997-07-17 21:00:00 TS 14.6148 -119.543 main 1363 1363 P_____________ EP081997 14.6148 -119.543 HU 65 986 1 11 291
1997196N10251 1997 52 EP MM FELICIA 1997-07-18 00:00:00 TS 14.8000 -120.100 65 985 hurdat_epa main 1387 1387 O_____________ hurdat_epa EP081997 14.8000 -120.100 HU 65 985 1 12 287
1997196N10251 1997 52 EP MM FELICIA 1997-07-18 03:00:00 TS 14.9649 -120.693 main 1408 1408 P_____________ EP081997 14.9649 -120.693 HU 70 982 1 12 285
1997196N10251 1997 52 EP MM FELICIA 1997-07-18 06:00:00 TS 15.1000 -121.300 75 979 hurdat_epa main 1440 1440 O_____________ hurdat_epa EP081997 15.1000 -121.300 HU 75 979 1 12 282
1997196N10251 1997 52 EP MM FELICIA 1997-07-18 09:00:00 TS 15.2147 -121.885 main 1474 1474 P_____________ EP081997 15.2147 -121.885 HU 85 973 2 12 280
1997196N10251 1997 52 EP MM FELICIA 1997-07-18 12:00:00 TS 15.3000 -122.500 95 968 hurdat_epa main 1510 1510 O_____________ hurdat_epa EP081997 15.3000 -122.500 HU 95 968 2 13 276
1997196N10251 1997 52 EP MM FELICIA 1997-07-18 15:00:00 TS 15.3574 -123.185 main 1555 1555 P_____________ EP081997 15.3574 -123.185 HU 97 964 3 14 274
1997196N10251 1997 52 EP MM FELICIA 1997-07-18 18:00:00 TS 15.4000 -123.900 100 960 hurdat_epa main 1610 1610 O_____________ hurdat_epa EP081997 15.4000 -123.900 HU 100 960 3 14 274
1997196N10251 1997 52 EP MM FELICIA 1997-07-18 21:00:00 TS 15.4498 -124.600 main 1665 1658 P_____________ EP081997 15.4498 -124.600 HU 105 958 3 14 274
1997196N10251 1997 52 EP MM FELICIA 1997-07-19 00:00:00 TS 15.5000 -125.300 110 956 hurdat_epa main 1716 1716 O_____________ hurdat_epa EP081997 15.5000 -125.300 HU 110 956 3 14 274
1997196N10251 1997 52 EP MM FELICIA 1997-07-19 03:00:00 TS 15.5498 -126.000 main 1773 1764 P_____________ EP081997 15.5498 -126.000 HU 112 953 3 14 274
1997196N10251 1997 52 EP MM FELICIA 1997-07-19 06:00:00 TS 15.6000 -126.700 115 951 hurdat_epa main 1811 1811 O_____________ hurdat_epa EP081997 15.6000 -126.700 HU 115 951 4 14 274
1997196N10251 1997 52 EP MM FELICIA 1997-07-19 09:00:00 TS 15.6498 -127.400 main 1860 1852 P_____________ EP081997 15.6498 -127.400 HU 115 949 4 14 274
1997196N10251 1997 52 EP MM FELICIA 1997-07-19 12:00:00 TS 15.7000 -128.100 115 948 hurdat_epa main 1902 1902 O_____________ hurdat_epa EP081997 15.7000 -128.100 HU 115 948 4 13 274
1997196N10251 1997 52 EP MM FELICIA 1997-07-19 15:00:00 TS 15.7422 -128.793 main 1954 1953 P_____________ EP081997 15.7422 -128.793 HU 115 949 4 14 274
1997196N10251 1997 52 EP MM FELICIA 1997-07-19 18:00:00 TS 15.8000 -129.500 115 951 hurdat_epa main 1999 1999 O_____________ hurdat_epa EP081997 15.8000 -129.500 HU 115 951 4 14 276
1997196N10251 1997 52 EP MM FELICIA 1997-07-19 21:00:00 TS 15.8848 -130.243 main 2046 2046 P_____________ EP081997 15.8848 -130.243 HU 112 952 3 15 278
1997196N10251 1997 52 EP MM FELICIA 1997-07-20 00:00:00 TS 16.0000 -131.000 110 954 hurdat_epa main 2102 2102 O_____________ hurdat_epa EP081997 16.0000 -131.000 HU 110 954 3 15 280
1997196N10251 1997 52 EP MM FELICIA 1997-07-20 03:00:00 TS 16.1422 -131.743 main 2151 2151 P_____________ EP081997 16.1422 -131.743 HU 107 955 3 15 282
1997196N10251 1997 52 EP MM FELICIA 1997-07-20 06:00:00 TS 16.3000 -132.500 105 957 hurdat_epa main 2204 2204 O_____________ hurdat_epa EP081997 16.3000 -132.500 HU 105 957 3 15 282
1997196N10251 1997 52 EP MM FELICIA 1997-07-20 09:00:00 TS 16.4499 -133.300 main 2264 2211 P_____________ EP081997 16.4499 -133.300 HU 102 958 3 16 281
1997196N10251 1997 52 EP MM FELICIA 1997-07-20 12:00:00 TS 16.6000 -134.100 100 960 hurdat_epa main 2211 2135 O_____________ hurdat_epa EP081997 16.6000 -134.100 HU 100 960 3 15 282
1997196N10251 1997 52 EP MM FELICIA 1997-07-20 15:00:00 TS 16.7571 -134.850 main 2123 2047 P_____________ EP081997 16.7571 -134.850 HU 97 962 3 15 282
1997196N10251 1997 52 EP MM FELICIA 1997-07-20 18:00:00 TS 16.9000 -135.600 95 965 hurdat_epa main 2047 1972 O_____________ hurdat_epa EP081997 16.9000 -135.600 HU 95 965 2 15 280
1997196N10251 1997 52 EP MM FELICIA 1997-07-20 21:00:00 TS 17.0072 -136.385 main 1962 1876 P_____________ EP081997 17.0072 -136.385 HU 92 968 2 15 277
1997196N10251 1997 52 EP MM FELICIA 1997-07-21 00:00:00 TS 17.1000 -137.200 90 972 hurdat_epa main 1876 1791 O_____________ hurdat_epa EP081997 17.1000 -137.200 HU 90 972 2 16 277
1997196N10251 1997 52 EP MM FELICIA 1997-07-21 03:00:00 TS 17.2070 -138.028 main 1791 1695 P_____________ EP081997 17.2070 -138.028 HU 80 976 1 16 277
1997196N10251 1997 52 EP MM FELICIA 1997-07-21 06:00:00 TS 17.3000 -138.900 70 980 hurdat_epa main 1695 1599 O_____________ hurdat_epa EP081997 17.3000 -138.900 HU 70 980 1 17 275
1997196N10251 1997 52 EP MM FELICIA 1997-07-21 09:00:00 TS 17.3569 -139.813 main 1599 1505 P_____________ EP081997 17.3569 -139.813 HU 62 985 0 18 273
1997196N10251 1997 52 EP CP FELICIA 1997-07-21 12:00:00 TS 17.4077 -140.800 55 990 hurdat_epa main 1494 1388 O_____________ hurdat_epa EP081997 17.4000 -140.800 TS 55 990 0 20 273
1997196N10251 1997 52 EP CP FELICIA 1997-07-21 15:00:00 TS 17.4633 -141.865 main 1378 1274 P_____________ EP081997 17.4495 -141.863 TS 50 992 0 21 273
1997196N10251 1997 52 EP CP FELICIA 1997-07-21 18:00:00 TS 17.5200 -143.000 45 995 hurdat_epa main 1264 1147 O_____________ hurdat_epa EP081997 17.5000 -143.000 TS 45 995 0 22 273
1997196N10251 1997 52 EP CP FELICIA 1997-07-21 21:00:00 TS 17.5838 -144.179 main 1137 1023 P_____________ EP081997 17.5569 -144.177 TS 42 997 0 23 273
1997196N10251 1997 52 EP CP FELICIA 1997-07-22 00:00:00 TS 17.6250 -145.400 40 1000 hurdat_epa main 1013 890 O_____________ hurdat_epa EP081997 17.6000 -145.400 TS 40 1000 0 24 271
1997196N10251 1997 52 EP CP FELICIA 1997-07-22 03:00:00 TS 17.6120 -146.643 main 890 767 P_____________ EP081997 17.5996 -146.658 TS 35 1002 0 24 269
1997196N10251 1997 52 EP CP FELICIA 1997-07-22 06:00:00 TS 17.6000 -147.875 30 1005 hurdat_epa main 757 647 O_____________ hurdat_epa EP081997 17.6000 -147.900 TD 30 1005 -1 23 271
1997196N10251 1997 52 EP CP FELICIA 1997-07-22 09:00:00 TS 17.6355 -149.054 main 637 534 P_____________ EP081997 17.6385 -149.072 TD 27 1005 -1 22 273
1997196N10251 1997 52 EP CP FELICIA 1997-07-22 12:00:00 TS 17.7000 -150.200 25 1005 hurdat_epa main 524 O_____________ hurdat_epa EP081997 17.7000 -150.200 TD 25 1005 -1 22 273

About IBTrACS Database

This database is a web-friendly format of International Best Track Archive for Climate Stewardship (IBTrACS), a global best track data archive curated by NOAA dating back to 1842.

Updated: 2021-10-21